createdAt,value
2017-04-08T00:00:33.052Z,76.9
2017-04-08T00:01:13.537Z,76.52
2017-04-08T00:01:53.973Z,76.23
2017-04-08T00:02:34.408Z,76.04
2017-04-08T00:03:14.885Z,75.67
2017-04-08T00:03:55.350Z,75.67
2017-04-08T00:04:35.818Z,75.28
2017-04-08T00:05:16.283Z,75.95
2017-04-08T00:05:56.798Z,75.76
2017-04-08T00:06:37.189Z,75.38
2017-04-08T00:07:17.648Z,75.57
2017-04-08T00:07:58.063Z,76.04
2017-04-08T00:08:38.565Z,76.71
2017-04-08T00:09:19.031Z,75.95
2017-04-08T00:10:00.228Z,76.04
2017-04-08T00:10:40.680Z,76.23
2017-04-08T00:11:21.183Z,76.61
2017-04-08T00:12:01.607Z,76.14
2017-04-08T00:12:42.106Z,75.19
2017-04-08T00:13:22.524Z,75.47
2017-04-08T00:14:02.969Z,75.47
2017-04-08T00:14:43.421Z,75.67
2017-04-08T00:15:23.913Z,75.76
2017-04-08T00:16:04.328Z,76.14
2017-04-08T00:16:44.813Z,76.52
2017-04-08T00:17:25.269Z,76.9
2017-04-08T00:18:05.730Z,77.09
2017-04-08T00:18:46.162Z,77.18
2017-04-08T00:19:26.647Z,76.99
2017-04-08T00:20:07.158Z,77.18
2017-04-08T00:20:47.640Z,76.8
2017-04-08T00:21:28.071Z,76.71
2017-04-08T00:22:08.622Z,76.61
2017-04-08T00:22:49.098Z,76.99
2017-04-08T00:23:29.495Z,76.99
2017-04-08T00:24:09.972Z,77.28
2017-04-08T00:24:50.416Z,77.84
2017-04-08T00:25:30.866Z,77.37
2017-04-08T00:26:11.330Z,77.94
2017-04-08T00:26:51.781Z,78.13
2017-04-08T00:27:32.332Z,78.03
2017-04-08T00:28:12.695Z,78.03
2017-04-08T00:28:53.960Z,77.94
2017-04-08T00:29:35.199Z,78.13
2017-04-08T00:30:15.686Z,78.13
2017-04-08T00:30:56.163Z,77.84
2017-04-08T00:31:36.624Z,77.94
2017-04-08T00:32:17.053Z,78.23
2017-04-08T00:32:57.496Z,77.56
2017-04-08T00:33:37.961Z,77.84
2017-04-08T00:34:18.408Z,77.84
2017-04-08T00:34:58.866Z,77.94
2017-04-08T00:35:39.275Z,78.03
2017-04-08T00:36:19.844Z,78.61
2017-04-08T00:37:00.286Z,78.51
2017-04-08T00:37:40.743Z,78.03
2017-04-08T00:38:21.186Z,78.23
2017-04-08T00:39:01.665Z,78.32
2017-04-08T00:39:42.179Z,78.51
2017-04-08T00:40:22.621Z,78.23
2017-04-08T00:41:03.126Z,78.32
2017-04-08T00:41:43.585Z,78.23
2017-04-08T00:42:24.053Z,78.23
2017-04-08T00:43:04.522Z,78.23
2017-04-08T00:43:44.984Z,78.09
2017-04-08T00:45:42.637Z,79.08
2017-04-08T00:46:23.109Z,79.23
2017-04-08T00:47:03.624Z,79.14
2017-04-08T00:47:44.088Z,79.04
2017-04-08T00:48:24.578Z,78.19
2017-04-08T00:49:05.063Z,78.95
2017-04-08T00:49:45.585Z,78.99
2017-04-08T00:50:26.056Z,79.36
2017-04-08T00:51:06.534Z,79.17
2017-04-08T00:51:47.045Z,78.66
2017-04-08T00:52:27.505Z,78.47
2017-04-08T00:53:08.522Z,78.23
2017-04-08T00:53:49.022Z,78.61
2017-04-08T00:54:29.539Z,78.23
2017-04-08T00:55:09.965Z,78.56
2017-04-08T00:55:50.443Z,78.61
2017-04-08T00:56:30.980Z,78.28
2017-04-08T00:57:11.434Z,79.04
2017-04-08T00:57:51.919Z,79.23
2017-04-08T00:58:32.396Z,79.42
2017-04-08T00:59:12.907Z,79.33
2017-04-08T00:59:53.385Z,78.85
2017-04-08T01:00:33.877Z,78.85
2017-04-08T01:01:15.012Z,79.14
2017-04-08T01:01:55.488Z,78.66
2017-04-08T01:02:35.966Z,79.23
2017-04-08T01:03:16.462Z,79.42
2017-04-08T01:03:56.963Z,79.42
2017-04-08T01:04:37.441Z,79.42
2017-04-08T01:05:17.937Z,79.14
2017-04-08T01:05:58.397Z,79.04
2017-04-08T01:06:38.898Z,79.33
2017-04-08T01:07:19.381Z,79.33
2017-04-08T01:07:59.911Z,79.23
2017-04-08T01:08:40.400Z,79.42
2017-04-08T01:09:20.902Z,79.23
2017-04-08T01:10:01.364Z,79.04
2017-04-08T01:11:59.015Z,79.71
2017-04-08T01:12:39.479Z,79.61
2017-04-08T01:13:19.974Z,79.61
2017-04-08T01:14:00.467Z,79.8
2017-04-08T01:14:41.902Z,79.23
2017-04-08T01:15:22.353Z,79.61
2017-04-08T01:16:02.923Z,79.8
2017-04-08T01:17:55.409Z,79.42
2017-04-08T01:18:35.878Z,78.85
2017-04-08T01:19:16.351Z,79.14
2017-04-08T01:19:56.833Z,78.75
2017-04-08T01:20:37.306Z,78.56
2017-04-08T01:21:17.777Z,78.28
2017-04-08T01:21:58.256Z,78.75
2017-04-08T01:22:38.723Z,78.47
2017-04-08T01:23:19.181Z,78.38
2017-04-08T01:23:59.616Z,78.75
2017-04-08T01:24:40.011Z,78.75
2017-04-08T01:25:20.479Z,78.66
2017-04-08T01:26:00.982Z,78.95
2017-04-08T01:26:41.456Z,79.04
2017-04-08T01:27:21.898Z,79.33
2017-04-08T01:28:02.315Z,79.23
2017-04-08T01:28:42.774Z,78.75
2017-04-08T01:30:35.284Z,79.14
2017-04-08T01:31:15.775Z,79.23
2017-04-08T01:31:56.256Z,79.14
2017-04-08T01:32:36.770Z,78.95
2017-04-08T01:33:17.248Z,78.75
2017-04-08T01:33:57.731Z,79.04
2017-04-08T01:34:38.180Z,78.95
2017-04-08T01:35:18.646Z,79.14
2017-04-08T01:35:59.104Z,79.33
2017-04-08T01:36:39.552Z,78.75
2017-04-08T01:37:19.999Z,78.95
2017-04-08T01:38:00.461Z,78.85
2017-04-08T01:38:40.911Z,78.28
2017-04-08T01:40:28.397Z,79.04
2017-04-08T01:41:08.890Z,79.04
2017-04-08T01:41:49.372Z,79.04
2017-04-08T01:42:29.881Z,78.75
2017-04-08T01:43:10.353Z,79.23
2017-04-08T01:43:50.879Z,78.85
2017-04-08T01:44:31.314Z,78.95
2017-04-08T01:45:11.813Z,79.33
2017-04-08T01:47:04.341Z,79.99
2017-04-08T01:47:44.790Z,80.08
2017-04-08T01:48:25.280Z,80.08
2017-04-08T01:49:05.755Z,80.52
2017-04-08T01:49:46.190Z,80.56
2017-04-08T01:50:26.636Z,80.46
2017-04-08T01:51:07.098Z,80.56
2017-04-08T01:51:47.593Z,80.65
2017-04-08T01:52:28.020Z,80.18
2017-04-08T01:53:08.498Z,80.08
2017-04-08T01:53:48.938Z,80.18
2017-04-08T01:56:06.758Z,80.08
2017-04-08T01:56:47.223Z,80.18
2017-04-08T01:57:27.636Z,80.18
2017-04-08T01:58:08.121Z,80.37
2017-04-08T01:58:48.580Z,80.18
2017-04-08T01:59:28.988Z,80.27
2017-04-08T02:01:21.542Z,79.99
2017-04-08T02:02:02.058Z,79.9
2017-04-08T02:02:42.521Z,79.8
2017-04-08T02:03:23.000Z,80.08
2017-04-08T02:04:03.440Z,80.18
2017-04-08T02:04:43.871Z,80.27
2017-04-08T02:05:24.331Z,80.27
2017-04-08T02:06:04.767Z,80.46
2017-04-08T02:06:45.233Z,79.8
2017-04-08T02:07:25.684Z,79.99
2017-04-08T02:08:06.136Z,80.08
2017-04-08T02:08:46.620Z,79.99
2017-04-08T02:09:27.073Z,79.8
2017-04-08T02:10:07.485Z,79.9
2017-04-08T02:12:20.207Z,80.18
2017-04-08T02:13:00.702Z,80.08
2017-04-08T02:13:41.154Z,80.8
2017-04-08T02:14:21.628Z,80.43
2017-04-08T02:15:02.103Z,80.71
2017-04-08T02:15:42.553Z,81.09
2017-04-08T02:16:23.011Z,81.37
2017-04-08T02:17:03.492Z,80.52
2017-04-08T02:17:43.919Z,80.99
2017-04-08T02:18:24.387Z,80.37
2017-04-08T02:19:04.830Z,80.52
2017-04-08T02:21:23.649Z,81.27
2017-04-08T02:22:04.129Z,81.37
2017-04-08T02:22:44.621Z,81.37
2017-04-08T02:23:25.100Z,81.37
2017-04-08T02:24:05.589Z,81.37
2017-04-08T02:24:46.021Z,81.47
2017-04-08T02:25:26.466Z,80.71
2017-04-08T02:26:06.934Z,80.52
2017-04-08T02:26:47.399Z,80.46
2017-04-08T02:28:39.935Z,80.52
2017-04-08T02:29:20.408Z,80.8
2017-04-08T02:30:00.876Z,80.71
2017-04-08T02:30:41.376Z,80.43
2017-04-08T02:31:21.843Z,80.37
2017-04-08T02:32:02.340Z,80.46
2017-04-08T02:32:42.815Z,80.75
2017-04-08T02:33:23.315Z,80.84
2017-04-08T02:34:03.832Z,80.18
2017-04-08T02:34:44.287Z,80.71
2017-04-08T02:35:24.761Z,80.33
2017-04-08T02:36:05.255Z,80.43
2017-04-08T02:36:45.715Z,80.46
2017-04-08T02:37:26.196Z,80.62
2017-04-08T02:38:06.673Z,80.8
2017-04-08T02:38:47.188Z,81.27
2017-04-08T02:41:04.979Z,81.47
2017-04-08T02:41:45.444Z,81.47
2017-04-08T02:42:25.972Z,81.56
2017-04-08T02:43:06.380Z,81.66
2017-04-08T02:45:19.110Z,81.09
2017-04-08T02:45:59.588Z,81.09
2017-04-08T02:46:40.094Z,81.56
2017-04-08T02:47:20.521Z,81.09
2017-04-08T02:48:00.976Z,81.37
2017-04-08T02:48:41.416Z,81.09
2017-04-08T02:49:21.861Z,81.37
2017-04-08T02:50:02.335Z,81.27
2017-04-08T02:50:42.811Z,81.27
2017-04-08T02:51:23.250Z,80.99
2017-04-08T02:52:03.714Z,81.56
2017-04-08T02:52:44.175Z,81.47
2017-04-08T02:53:24.619Z,81.37
2017-04-08T02:54:05.048Z,81.47
2017-04-08T02:54:45.505Z,81.56
2017-04-08T02:55:25.963Z,81.09
2017-04-08T02:57:23.544Z,81.18
2017-04-08T02:58:04.063Z,81.18
2017-04-08T02:58:44.566Z,81.27
2017-04-08T02:59:25.004Z,81.47
2017-04-08T03:00:05.471Z,81.47
2017-04-08T03:00:45.930Z,81.18
2017-04-08T03:02:33.410Z,81.09
2017-04-08T03:03:13.900Z,81.09
2017-04-08T03:03:54.342Z,80.99
2017-04-08T03:04:34.910Z,81.18
2017-04-08T03:05:16.184Z,81.47
2017-04-08T03:05:56.681Z,81.27
2017-04-08T03:06:37.171Z,81.85
2017-04-08T03:07:17.694Z,82.04
2017-04-08T03:07:58.180Z,81.66
2017-04-08T03:08:38.660Z,81.27
2017-04-08T03:09:19.133Z,81.37
2017-04-08T03:09:59.583Z,81.56
2017-04-08T03:10:40.034Z,81.27
2017-04-08T03:11:20.512Z,81.27
2017-04-08T03:13:13.401Z,81.66
2017-04-08T03:13:53.886Z,82.13
2017-04-08T03:14:35.045Z,81.27
2017-04-08T03:15:15.522Z,81.27
2017-04-08T03:15:56.001Z,81.27
2017-04-08T03:16:36.465Z,81.37
2017-04-08T03:17:16.866Z,81.66
2017-04-08T03:17:57.331Z,81.66
2017-04-08T03:18:37.796Z,81.85
2017-04-08T03:19:18.253Z,81.66
2017-04-08T03:19:58.693Z,81.66
2017-04-08T03:20:39.169Z,82.13
2017-04-08T03:21:19.609Z,81.56
2017-04-08T03:22:00.078Z,81.56
2017-04-08T03:22:40.564Z,81.47
2017-04-08T03:24:58.351Z,81.56
2017-04-08T03:25:38.908Z,81.56
2017-04-08T03:26:19.335Z,80.9
2017-04-08T03:26:59.821Z,81.18
2017-04-08T03:27:40.291Z,81.27
2017-04-08T03:28:20.784Z,81.37
2017-04-08T03:29:01.267Z,81.09
2017-04-08T03:29:41.771Z,81.18
2017-04-08T03:30:22.187Z,80.9
2017-04-08T03:31:02.682Z,81.56
2017-04-08T03:31:43.153Z,81.37
2017-04-08T03:32:23.628Z,81.47
2017-04-08T03:33:04.092Z,81.66
2017-04-08T03:35:21.861Z,81.37
2017-04-08T03:36:02.361Z,81.27
2017-04-08T03:36:42.908Z,80.99
2017-04-08T03:37:23.359Z,81.18
2017-04-08T03:38:03.814Z,80.99
2017-04-08T03:38:44.306Z,81.18
2017-04-08T03:39:24.771Z,81.09
2017-04-08T03:40:05.260Z,81.18
2017-04-08T03:40:45.761Z,81.94
2017-04-08T03:41:26.204Z,81.81
2017-04-08T03:42:06.670Z,81.85
2017-04-08T03:42:47.158Z,81.71
2017-04-08T03:43:27.654Z,81.56
2017-04-08T03:44:08.151Z,81.9
2017-04-08T03:44:48.565Z,81.9
2017-04-08T03:45:29.029Z,81.62
2017-04-08T03:46:09.448Z,82.23
2017-04-08T03:46:49.875Z,81.71
2017-04-08T03:47:30.312Z,81.71
2017-04-08T03:48:10.760Z,81.81
2017-04-08T03:48:51.220Z,82.37
2017-04-08T03:49:31.710Z,82.28
2017-04-08T03:50:12.147Z,82.28
2017-04-08T03:50:52.606Z,82.09
2017-04-08T03:51:33.050Z,82.18
2017-04-08T03:52:13.513Z,82.47
2017-04-08T03:52:53.943Z,82.56
2017-04-08T03:53:34.399Z,82.37
2017-04-08T03:54:14.871Z,82.94
2017-04-08T03:54:55.321Z,82.94
2017-04-08T03:55:35.764Z,82.56
2017-04-08T03:57:23.234Z,82.56
2017-04-08T03:58:03.742Z,82.37
2017-04-08T03:58:44.201Z,82.94
2017-04-08T03:59:24.685Z,82.75
2017-04-08T04:00:05.148Z,82.94
2017-04-08T04:00:45.636Z,82.37
2017-04-08T04:01:26.124Z,82.66
2017-04-08T04:02:06.614Z,82.47
2017-04-08T04:02:47.076Z,82.56
2017-04-08T04:03:27.567Z,82.28
2017-04-08T04:04:08.072Z,82.28
2017-04-08T04:04:48.548Z,82.18
2017-04-08T04:05:29.039Z,82.37
2017-04-08T04:06:09.547Z,82.18
2017-04-08T04:06:50.029Z,82.28
2017-04-08T04:07:30.486Z,82.18
2017-04-08T04:08:10.944Z,82.28
2017-04-08T04:08:51.400Z,82.56
2017-04-08T04:09:31.879Z,82.37
2017-04-08T04:10:12.315Z,82.47
2017-04-08T04:10:52.785Z,81.9
2017-04-08T04:11:33.234Z,81.94
2017-04-08T04:12:13.692Z,81.85
2017-04-08T04:12:54.139Z,82.23
2017-04-08T04:13:34.555Z,82.28
2017-04-08T04:14:15.048Z,81.75
2017-04-08T04:14:55.508Z,81.66
2017-04-08T04:16:42.987Z,81.47
2017-04-08T04:17:23.461Z,81.75
2017-04-08T04:18:03.981Z,82.04
2017-04-08T04:18:44.446Z,81.85
2017-04-08T04:19:24.956Z,81.85
2017-04-08T04:20:05.430Z,82.04
2017-04-08T04:20:45.900Z,81.81
2017-04-08T04:21:26.383Z,81.85
2017-04-08T04:22:06.881Z,82.04
2017-04-08T04:22:47.350Z,81.75
2017-04-08T04:23:27.858Z,82.04
2017-04-08T04:24:08.344Z,81.85
2017-04-08T04:24:48.814Z,81.66
2017-04-08T04:25:29.304Z,81.85
2017-04-08T04:26:09.762Z,82.13
2017-04-08T04:26:50.250Z,82.13
2017-04-08T04:27:30.746Z,82.28
2017-04-08T04:28:11.207Z,81.66
2017-04-08T04:28:51.702Z,81.81
2017-04-08T04:29:32.188Z,81.85
2017-04-08T04:30:12.647Z,81.75
2017-04-08T04:30:53.088Z,81.66
2017-04-08T04:33:05.810Z,81.66
2017-04-08T04:33:46.281Z,82.13
2017-04-08T04:34:26.774Z,81.85
2017-04-08T04:35:07.229Z,81.75
2017-04-08T04:35:47.724Z,81.85
2017-04-08T04:36:28.224Z,81.94
2017-04-08T04:37:08.697Z,81.56
2017-04-08T04:37:49.186Z,81.66
2017-04-08T04:38:29.699Z,81.75
2017-04-08T04:39:10.249Z,81.81
2017-04-08T04:39:50.688Z,81.66
2017-04-08T04:40:31.133Z,81.66
2017-04-08T04:41:11.621Z,82.04
2017-04-08T04:41:52.052Z,81.85
2017-04-08T04:42:32.518Z,81.85
2017-04-08T04:44:50.342Z,81.62
2017-04-08T04:45:30.840Z,82.04
2017-04-08T04:46:11.258Z,81.66
2017-04-08T04:46:51.674Z,81.62
2017-04-08T04:47:32.098Z,82.28
2017-04-08T04:48:12.568Z,82.18
2017-04-08T04:48:53.043Z,82.42
2017-04-08T04:51:10.836Z,82.18
2017-04-08T04:51:51.323Z,82.47
2017-04-08T04:52:31.799Z,82.32
2017-04-08T04:53:12.259Z,82.13
2017-04-08T04:53:52.755Z,81.66
2017-04-08T04:54:33.175Z,81.94
2017-04-08T04:55:13.615Z,82.42
2017-04-08T04:55:54.086Z,82.13
2017-04-08T04:56:34.550Z,81.66
2017-04-08T04:57:15.009Z,81.66
2017-04-08T04:57:55.507Z,81.94
2017-04-08T04:58:36.014Z,81.66
2017-04-08T04:59:16.431Z,81.85
2017-04-08T04:59:56.890Z,81.85
2017-04-08T05:00:37.278Z,82.04
2017-04-08T05:01:17.712Z,81.94
2017-04-08T05:01:58.163Z,81.66
2017-04-08T05:03:55.757Z,81.85
2017-04-08T05:04:36.245Z,81.85
2017-04-08T05:05:16.747Z,81.75
2017-04-08T05:05:57.233Z,82.13
2017-04-08T05:06:37.729Z,81.37
2017-04-08T05:07:18.229Z,81.27
2017-04-08T05:07:58.729Z,80.99
2017-04-08T05:08:39.210Z,81.56
2017-04-08T05:09:19.701Z,81.47
2017-04-08T05:10:00.193Z,81.62
2017-04-08T05:10:40.727Z,81.66
2017-04-08T05:11:21.172Z,81.94
2017-04-08T05:12:01.661Z,81.99
2017-04-08T05:12:42.158Z,81.94
2017-04-08T05:13:22.656Z,81.85
2017-04-08T05:14:03.140Z,82.23
2017-04-08T05:14:43.602Z,82.04
2017-04-08T05:15:24.067Z,81.66
2017-04-08T05:16:04.550Z,81.94
2017-04-08T05:16:45.013Z,81.09
2017-04-08T05:17:25.501Z,81.27
2017-04-08T05:18:05.988Z,81.27
2017-04-08T05:18:46.422Z,81.09
2017-04-08T05:19:26.912Z,81.47
2017-04-08T05:20:07.410Z,81.27
2017-04-08T05:20:47.924Z,81.47
2017-04-08T05:21:28.396Z,81.85
2017-04-08T05:22:08.893Z,82.04
2017-04-08T05:22:49.327Z,81.47
2017-04-08T05:23:29.801Z,81.56
2017-04-08T05:24:10.289Z,80.99
2017-04-08T05:24:50.756Z,81.37
2017-04-08T05:25:31.233Z,81.27
2017-04-08T05:26:11.735Z,80.99
2017-04-08T05:26:52.230Z,81.18
2017-04-08T05:27:32.768Z,80.52
2017-04-08T05:28:13.246Z,80.24
2017-04-08T05:28:53.732Z,80.62
2017-04-08T05:29:34.226Z,80.52
2017-04-08T05:30:14.719Z,80.62
2017-04-08T05:30:55.209Z,81.27
2017-04-08T05:31:35.720Z,81.18
2017-04-08T05:32:16.172Z,81.37
2017-04-08T05:32:56.620Z,81.37
2017-04-08T05:33:37.090Z,81.18
2017-04-08T05:34:17.577Z,81.37
2017-04-08T05:34:58.035Z,81.18
2017-04-08T05:35:38.460Z,81.18
2017-04-08T05:36:18.892Z,80.8
2017-04-08T05:36:59.341Z,80.52
2017-04-08T05:37:39.807Z,80.43
2017-04-08T05:38:20.262Z,80.33
2017-04-08T05:39:00.724Z,80.62
2017-04-08T05:40:58.881Z,80.43
2017-04-08T05:41:39.239Z,79.66
2017-04-08T05:42:19.685Z,79.85
2017-04-08T05:43:00.148Z,79.57
2017-04-08T05:43:40.586Z,79.1
2017-04-08T05:44:21.001Z,79.66
2017-04-08T05:45:01.476Z,79.28
2017-04-08T05:45:41.875Z,79.19
2017-04-08T05:46:22.319Z,79.19
2017-04-08T05:47:02.798Z,79.19
2017-04-08T05:47:43.243Z,79.47
2017-04-08T05:48:23.710Z,79.19
2017-04-08T05:49:04.159Z,79
2017-04-08T05:49:44.621Z,79.19
2017-04-08T05:50:25.074Z,78.47
2017-04-08T05:51:05.548Z,78.38
2017-04-08T05:51:46.015Z,78.38
2017-04-08T05:52:26.463Z,77.81
2017-04-08T05:53:06.923Z,77.24
2017-04-08T05:53:47.392Z,77.43
2017-04-08T05:54:27.850Z,76.95
2017-04-08T05:55:08.289Z,76.23
2017-04-08T05:55:49.473Z,75.57
2017-04-08T05:56:29.905Z,75.76
2017-04-08T05:58:42.622Z,73.96
2017-04-08T05:59:23.082Z,73.14
2017-04-08T06:00:03.546Z,72.66
2017-04-08T06:00:44.019Z,72.47
2017-04-08T06:01:24.567Z,72
2017-04-08T06:02:04.976Z,71.81
2017-04-08T06:02:45.452Z,71.71
2017-04-08T06:03:25.946Z,71.14
2017-04-08T06:04:06.452Z,70.95
2017-04-08T06:04:46.937Z,71.04
2017-04-08T06:05:27.410Z,71.23
2017-04-08T06:06:07.877Z,70.86
2017-04-08T06:06:48.407Z,70.48
2017-04-08T06:07:28.891Z,70.04
2017-04-08T06:08:09.352Z,69.27
2017-04-08T06:08:49.853Z,68.99
2017-04-08T06:09:30.344Z,68.33
2017-04-08T06:10:10.805Z,67.94
2017-04-08T06:10:51.289Z,68.04
2017-04-08T06:11:31.756Z,67.57
2017-04-08T06:12:12.249Z,66.94
2017-04-08T06:12:52.748Z,66.46
2017-04-08T06:13:33.226Z,66.55
2017-04-08T06:14:13.700Z,66.36
2017-04-08T06:14:54.182Z,66.65
2017-04-08T06:15:34.636Z,66.36
2017-04-08T06:16:15.162Z,66.2
2017-04-08T06:16:55.629Z,65.54
2017-04-08T06:17:36.161Z,64.78
2017-04-08T06:18:16.669Z,64.4
2017-04-08T06:18:57.199Z,64.4
2017-04-08T06:19:37.641Z,64.78
2017-04-08T06:20:18.108Z,64.78
2017-04-08T06:20:58.579Z,63.92
2017-04-08T06:23:11.318Z,64.11
2017-04-08T06:23:51.750Z,64.18
2017-04-08T06:24:32.268Z,64.94
2017-04-08T06:25:12.708Z,65.41
2017-04-08T06:25:53.204Z,66.08
2017-04-08T06:26:33.662Z,66.52
2017-04-08T06:27:14.156Z,67.28
2017-04-08T06:27:54.667Z,67.94
2017-04-08T06:29:47.227Z,68.61
2017-04-08T06:30:27.728Z,69.09
2017-04-08T06:31:08.209Z,69.24
2017-04-08T06:31:48.668Z,69.18
2017-04-08T06:32:29.174Z,69.94
2017-04-08T06:33:09.634Z,69.53
2017-04-08T06:33:50.080Z,69.81
2017-04-08T06:34:30.588Z,70.57
2017-04-08T06:35:11.137Z,70.29
2017-04-08T06:35:51.620Z,70.51
2017-04-08T06:36:32.125Z,69.75
2017-04-08T06:37:12.615Z,69.27
2017-04-08T06:37:53.097Z,68.71
2017-04-08T06:38:33.574Z,68.71
2017-04-08T06:39:14.049Z,68.61
2017-04-08T06:39:54.544Z,68.71
2017-04-08T06:40:35.028Z,69.09
2017-04-08T06:41:15.525Z,68.42
2017-04-08T06:41:56.049Z,68.71
2017-04-08T06:42:36.514Z,68.74
2017-04-08T06:43:17.035Z,68.55
2017-04-08T06:43:57.448Z,68.27
2017-04-08T06:44:37.895Z,68.07
2017-04-08T06:45:18.355Z,68.27
2017-04-08T06:45:58.797Z,67.5
2017-04-08T06:46:39.270Z,67.22
2017-04-08T06:47:19.725Z,67.41
2017-04-08T06:49:37.586Z,65.35
2017-04-08T06:50:18.012Z,64.34
2017-04-08T06:50:58.545Z,63.23
2017-04-08T06:51:38.998Z,62.18
2017-04-08T06:52:19.459Z,60.4
2017-04-08T06:52:59.944Z,59.06
2017-04-08T06:53:40.425Z,58.21
2017-04-08T06:54:20.930Z,58.52
2017-04-08T06:55:01.454Z,56.43
2017-04-08T06:55:41.912Z,55.41
2017-04-08T06:56:22.410Z,54.64
2017-04-08T06:57:02.874Z,54.26
2017-04-08T06:57:43.351Z,54.17
2017-04-08T06:58:23.841Z,53.72
2017-04-08T06:59:04.303Z,52.95
2017-04-08T06:59:44.772Z,52.48
2017-04-08T07:00:25.258Z,52.86
2017-04-08T07:01:05.750Z,51.83
2017-04-08T07:01:46.248Z,50.21
2017-04-08T07:02:26.670Z,49.64
2017-04-08T07:03:07.159Z,50.12
2017-04-08T07:03:47.625Z,49.54
2017-04-08T07:04:28.112Z,49.44
2017-04-08T07:05:08.563Z,49.73
2017-04-08T07:05:49.056Z,49.93
2017-04-08T07:06:29.571Z,49.16
2017-04-08T07:07:10.040Z,48.97
2017-04-08T07:07:50.528Z,49.35
2017-04-08T07:08:31.032Z,49.42
2017-04-08T07:09:11.522Z,49.93
2017-04-08T07:09:52.018Z,50.47
2017-04-08T07:10:32.503Z,51.26
2017-04-08T07:11:13.012Z,49.85
2017-04-08T07:11:53.519Z,48.8
2017-04-08T07:12:34.043Z,47.78
2017-04-08T07:13:14.496Z,47.2
2017-04-08T07:13:54.977Z,47.75
2017-04-08T07:14:35.447Z,48.59
2017-04-08T07:15:15.953Z,48.9
2017-04-08T07:15:56.438Z,48.04
2017-04-08T07:16:36.931Z,46.92
2017-04-08T07:17:17.436Z,45.79
2017-04-08T07:17:57.910Z,44.74
2017-04-08T07:18:38.385Z,43.8
2017-04-08T07:19:18.878Z,44.09
2017-04-08T07:19:59.385Z,42.85
2017-04-08T07:20:39.878Z,42.94
2017-04-08T07:21:20.385Z,42.85
2017-04-08T07:22:00.866Z,43.4
2017-04-08T07:22:41.372Z,42.37
2017-04-08T07:23:21.857Z,41.53
2017-04-08T07:24:02.342Z,41.8
2017-04-08T07:24:42.844Z,42.37
2017-04-08T07:25:23.333Z,42.27
2017-04-08T07:26:03.828Z,41.99
2017-04-08T07:26:44.320Z,42.76
2017-04-08T07:27:24.767Z,42.56
2017-04-08T07:28:05.274Z,41.91
2017-04-08T07:28:45.764Z,41.24
2017-04-08T07:29:26.297Z,41.24
2017-04-08T07:30:06.718Z,41.91
2017-04-08T07:30:47.203Z,41.34
2017-04-08T07:31:27.700Z,39.83
2017-04-08T07:32:08.188Z,40.09
2017-04-08T07:32:48.696Z,40.09
2017-04-08T07:33:29.209Z,39.81
2017-04-08T07:34:09.666Z,40.12
2017-04-08T07:34:50.199Z,39.06
2017-04-08T07:35:30.679Z,38.41
2017-04-08T07:36:11.145Z,38.14
2017-04-08T07:36:51.616Z,36.44
2017-04-08T07:37:32.129Z,36.44
2017-04-08T07:38:12.622Z,35.84
2017-04-08T07:38:53.130Z,36.61
2017-04-08T07:39:33.616Z,35.88
2017-04-08T07:40:14.095Z,34.36
2017-04-08T07:40:54.588Z,33.88
2017-04-08T07:41:35.064Z,33.4
2017-04-08T07:42:15.571Z,32.64
2017-04-08T07:42:56.068Z,32.73
2017-04-08T07:43:36.544Z,33
2017-04-08T07:44:16.969Z,33.29
2017-04-08T07:44:57.415Z,33.96
2017-04-08T07:45:37.927Z,34.34
2017-04-08T07:46:18.344Z,33.31
2017-04-08T07:48:05.835Z,33
2017-04-08T07:48:46.333Z,34.5
2017-04-08T07:49:26.753Z,35.83
2017-04-08T07:50:07.205Z,36.4
2017-04-08T07:50:47.605Z,37.26
2017-04-08T07:51:28.120Z,36.98
2017-04-08T07:52:08.562Z,36.32
2017-04-08T07:53:56.055Z,35.08
2017-04-08T07:54:36.499Z,35.92
2017-04-08T07:55:16.980Z,36.98
2017-04-08T07:55:57.477Z,37.15
2017-04-08T07:56:37.965Z,38.39
2017-04-08T07:57:18.453Z,38.12
2017-04-08T07:57:58.967Z,37.18
2017-04-08T07:58:39.440Z,35.86
2017-04-08T07:59:19.928Z,34.9
2017-04-08T08:00:00.425Z,35.19
2017-04-08T08:00:40.915Z,35.19
2017-04-08T08:01:21.409Z,35.57
2017-04-08T08:02:01.901Z,34.63
2017-04-08T08:02:42.393Z,33.58
2017-04-08T08:03:23.757Z,33.37
2017-04-08T08:04:04.238Z,34.53
2017-04-08T08:04:44.716Z,34.44
2017-04-08T08:05:25.221Z,34.59
2017-04-08T08:06:05.707Z,36.3
2017-04-08T08:06:46.198Z,36.4
2017-04-08T08:07:26.697Z,36.32
2017-04-08T08:08:07.127Z,35.77
2017-04-08T08:08:47.628Z,34.17
2017-04-08T08:09:28.095Z,32.73
2017-04-08T08:10:08.613Z,31.59
2017-04-08T08:10:49.056Z,31.23
2017-04-08T08:12:41.623Z,31.48
2017-04-08T08:13:22.115Z,32.98
2017-04-08T08:14:02.611Z,34.04
2017-04-08T08:15:50.088Z,34.15
2017-04-08T08:16:30.589Z,33.03
2017-04-08T08:17:11.085Z,31.13
2017-04-08T08:17:51.568Z,30.17
2017-04-08T08:18:32.041Z,30.07
2017-04-08T08:19:12.528Z,29.88
2017-04-08T08:19:52.998Z,29.97
2017-04-08T08:20:33.472Z,30.07
2017-04-08T08:21:13.920Z,28.95
2017-04-08T08:21:54.361Z,27.44
2017-04-08T08:22:34.788Z,25.81
2017-04-08T08:23:15.228Z,24.76
2017-04-08T08:23:55.656Z,24.29
2017-04-08T08:24:36.095Z,24.02
2017-04-08T08:25:16.554Z,24.29
2017-04-08T08:25:57.021Z,23.15
2017-04-08T08:26:37.472Z,23.05
2017-04-08T08:27:17.952Z,23.24
2017-04-08T08:27:58.374Z,22.96
2017-04-08T08:28:38.860Z,22.49
2017-04-08T08:29:19.319Z,22.1
2017-04-08T08:29:59.779Z,22.02
2017-04-08T08:30:40.227Z,21.53
2017-04-08T08:31:20.688Z,21.24
2017-04-08T08:32:01.121Z,21.73
2017-04-08T08:32:41.556Z,20.97
2017-04-08T08:33:21.999Z,20.56
2017-04-08T08:34:02.460Z,21.06
2017-04-08T08:34:42.920Z,20.38
2017-04-08T08:35:23.386Z,19.91
2017-04-08T08:36:03.844Z,20.48
2017-04-08T08:36:44.299Z,20.94
2017-04-08T08:37:24.789Z,21.53
2017-04-08T08:38:05.257Z,22.57
2017-04-08T08:38:45.713Z,22.1
2017-04-08T08:39:26.170Z,21.36
2017-04-08T08:40:06.643Z,20.41
2017-04-08T08:40:47.088Z,18.97
2017-04-08T08:41:27.556Z,18.96
2017-04-08T08:42:08.002Z,18.19
2017-04-08T08:42:49.406Z,18.37
2017-04-08T08:43:29.843Z,19.7
2017-04-08T08:44:10.345Z,20.38
2017-04-08T08:44:50.766Z,20.01
2017-04-08T08:45:31.224Z,19.06
2017-04-08T08:46:12.650Z,19.06
2017-04-08T08:46:53.116Z,19.34
2017-04-08T08:47:33.676Z,19.32
2017-04-08T08:48:14.161Z,21.31
2017-04-08T08:48:54.637Z,22.29
2017-04-08T08:49:35.101Z,22
2017-04-08T08:50:15.558Z,21.52
2017-04-08T08:50:56.014Z,21.06
2017-04-08T08:51:36.471Z,20.48
2017-04-08T08:52:16.919Z,21.44
2017-04-08T08:52:57.389Z,22
2017-04-08T08:53:37.843Z,22.19
2017-04-08T08:54:18.300Z,21.92
2017-04-08T08:54:58.747Z,21.64
2017-04-08T08:55:39.223Z,21.23
2017-04-08T08:56:19.709Z,22.46
2017-04-08T08:57:00.151Z,23.24
2017-04-08T08:57:40.602Z,23.99
2017-04-08T08:58:21.064Z,24.57
2017-04-08T08:59:01.530Z,24.2
2017-04-08T08:59:41.977Z,24.02
2017-04-08T09:00:22.433Z,23.05
2017-04-08T09:01:02.890Z,22.87
2017-04-08T09:01:43.352Z,22.29
2017-04-08T09:02:23.844Z,22.1
2017-04-08T09:03:04.304Z,21.34
2017-04-08T09:03:44.750Z,21.23
2017-04-08T09:04:25.189Z,22
2017-04-08T09:05:05.636Z,21.72
2017-04-08T09:05:46.095Z,21.83
2017-04-08T09:06:26.586Z,20.77
2017-04-08T09:07:07.089Z,21.53
2017-04-08T09:07:47.529Z,21.64
2017-04-08T09:08:28.902Z,20.97
2017-04-08T09:09:09.359Z,20.87
2017-04-08T09:09:49.801Z,20.21
2017-04-08T09:10:30.244Z,20.28
2017-04-08T09:11:10.700Z,21.42
2017-04-08T09:13:23.456Z,25.7
2017-04-08T09:14:03.922Z,25.24
2017-04-08T09:14:44.437Z,23.92
2017-04-08T09:15:24.941Z,23.45
2017-04-08T09:16:05.450Z,22.76
2017-04-08T09:16:45.876Z,23.88
2017-04-08T09:17:26.357Z,25.33
2017-04-08T09:18:06.850Z,25.22
2017-04-08T09:18:47.296Z,24.57
2017-04-08T09:19:27.755Z,23.34
2017-04-08T09:21:25.394Z,20.86
2017-04-08T09:22:05.900Z,20.59
2017-04-08T09:22:46.373Z,20.01
2017-04-08T09:23:26.839Z,19.82
2017-04-08T09:24:07.351Z,20.1
2017-04-08T09:24:47.879Z,20.56
2017-04-08T09:25:28.370Z,22.28
2017-04-08T09:26:08.874Z,22.67
2017-04-08T09:26:49.313Z,22
2017-04-08T09:27:29.793Z,21.44
2017-04-08T09:28:10.324Z,20.95
2017-04-08T09:28:50.846Z,21.06
2017-04-08T09:29:31.331Z,20.2
2017-04-08T09:31:18.830Z,22
2017-04-08T09:31:59.310Z,21.53